Time;durP1;ratioP1;P1;durP2;ratioP2;P2;SDS_P1;SDS_P2;PMS_P1;PMS_P2;Temp;Humidity;BMP_temperature;BMP_pressure;BME280_temperature;BME280_humidity;BME280_pressure;Samples;Min_cycle;Max_cycle;Signal;HPM_P1;HPM_P2
2021/05/21 00:00:41;;;;;;;9.18;3.63;;;;;;;;;;4993119;28;20032;-59
2021/05/21 00:03:07;;;;;;;10.98;3.78;;;;;;;;;;5011497;28;20487;-57
2021/05/21 00:05:33;;;;;;;6.75;3.00;;;;;;;;;;5029908;28;20089;-57
2021/05/21 00:07:59;;;;;;;6.85;3.28;;;;;;;;;;5029081;28;20025;-58
2021/05/21 00:10:24;;;;;;;6.60;2.90;;;;;;;;;;5011328;28;20024;-58
2021/05/21 00:12:50;;;;;;;9.85;2.75;;;;;;;;;;5028484;28;20459;-57
2021/05/21 00:15:15;;;;;;;7.28;2.78;;;;;;;;;;5007660;28;20049;-57
2021/05/21 00:17:45;;;;;;;8.48;2.75;;;;;;;;;;5028697;28;20040;-57
2021/05/21 00:20:11;;;;;;;7.05;2.53;;;;;;;;;;5030366;28;20037;-59
2021/05/21 00:22:37;;;;;;;6.90;2.75;;;;;;;;;;5028981;28;20077;-58
2021/05/21 00:25:04;;;;;;;8.70;3.00;;;;;;;;;;5010825;28;20033;-57
2021/05/21 00:27:29;;;;;;;7.75;2.88;;;;;;;;;;4993654;28;20033;-58
2021/05/21 00:29:55;;;;;;;10.60;2.67;;;;;;;;;;5028067;28;20059;-58
2021/05/21 00:32:23;;;;;;;3.80;2.67;;;;;;;;;;5027582;28;20059;-58
2021/05/21 00:34:51;;;;;;;8.65;2.72;;;;;;;;;;5029223;28;20120;-58
2021/05/21 00:37:19;;;;;;;3.17;2.33;;;;;;;;;;4995941;28;20130;-59
2021/05/21 00:39:44;;;;;;;6.47;3.10;;;;;;;;;;5010325;28;20719;-57
2021/05/21 00:42:13;;;;;;;7.60;2.90;;;;;;;;;;5024272;28;20017;-58
2021/05/21 00:44:39;;;;;;;5.22;2.90;;;;;;;;;;4994645;28;20035;-57
2021/05/21 00:47:04;;;;;;;5.57;2.58;;;;;;;;;;4993593;28;20373;-56
2021/05/21 00:49:30;;;;;;;7.57;3.17;;;;;;;;;;5032917;28;20048;-58
2021/05/21 00:52:01;;;;;;;9.70;2.92;;;;;;;;;;5032236;28;20037;-58
2021/05/21 00:54:26;;;;;;;6.63;3.63;;;;;;;;;;5009381;28;20032;-57
2021/05/21 00:56:52;;;;;;;9.10;2.92;;;;;;;;;;5001227;28;20051;-59
2021/05/21 00:59:20;;;;;;;7.55;2.90;;;;;;;;;;5014237;28;20134;-58
2021/05/21 01:01:46;;;;;;;7.88;2.28;;;;;;;;;;5031275;28;20127;-57
2021/05/21 01:04:13;;;;;;;5.78;2.55;;;;;;;;;;5015132;28;20033;-57
2021/05/21 01:06:38;;;;;;;11.90;2.30;;;;;;;;;;5033813;28;20112;-57
2021/05/21 01:09:06;;;;;;;2.97;1.90;;;;;;;;;;5014298;28;20063;-57
2021/05/21 01:11:31;;;;;;;4.13;2.17;;;;;;;;;;5012838;28;20036;-58
2021/05/21 01:13:57;;;;;;;3.13;2.10;;;;;;;;;;5031852;28;20035;-58
2021/05/21 01:16:22;;;;;;;5.75;2.75;;;;;;;;;;5032960;28;20036;-58
2021/05/21 01:18:50;;;;;;;9.25;2.15;;;;;;;;;;5000112;28;20044;-57
2021/05/21 01:21:24;;;;;;;8.05;2.08;;;;;;;;;;5030982;28;20036;-61
2021/05/21 01:23:51;;;;;;;9.35;2.15;;;;;;;;;;5032411;28;20025;-57
2021/05/21 01:26:20;;;;;;;8.35;2.08;;;;;;;;;;5035009;28;20200;-58
2021/05/21 01:28:46;;;;;;;2.83;2.08;;;;;;;;;;5014867;28;20032;-58
2021/05/21 01:31:12;;;;;;;11.02;2.88;;;;;;;;;;5031933;28;20577;-58
2021/05/21 01:33:38;;;;;;;6.30;2.45;;;;;;;;;;5014427;28;20080;-57
2021/05/21 01:36:03;;;;;;;11.55;2.17;;;;;;;;;;5033444;28;20037;-57
2021/05/21 01:38:29;;;;;;;19.50;3.97;;;;;;;;;;5031773;28;20047;-56
2021/05/21 01:40:56;;;;;;;3.25;1.88;;;;;;;;;;5030246;28;20039;-57
2021/05/21 01:43:22;;;;;;;4.18;1.88;;;;;;;;;;5028659;28;20099;-59
2021/05/21 01:45:50;;;;;;;4.20;2.22;;;;;;;;;;5014869;28;20040;-59
2021/05/21 01:48:15;;;;;;;5.88;1.92;;;;;;;;;;5032497;28;20029;-59
2021/05/21 01:50:42;;;;;;;8.18;2.00;;;;;;;;;;5016514;28;20565;-59
2021/05/21 01:53:09;;;;;;;4.47;1.77;;;;;;;;;;5013862;28;20035;-60
2021/05/21 01:55:35;;;;;;;5.55;1.90;;;;;;;;;;5015954;28;20045;-58
2021/05/21 01:58:03;;;;;;;17.85;1.83;;;;;;;;;;5031119;28;20179;-59
2021/05/21 02:03:37;;;;;;;8.07;1.60;;;;;;;;;;5044537;22;20061;-89
2021/05/21 02:10:06;;;;;;;6.43;1.65;;;;;;;;;;5039995;28;20064;-90
2021/05/21 02:12:55;;;;;;;12.00;1.67;;;;;;;;;;5003670;28;20041;-87
2021/05/21 02:15:55;;;;;;;6.93;2.22;;;;;;;;;;4997989;28;20022;-86
2021/05/21 02:22:40;;;;;;;10.85;1.63;;;;;;;;;;4997173;28;20013;-91
2021/05/21 02:25:04;;;;;;;10.38;1.75;;;;;;;;;;4981081;28;20035;-89
2021/05/21 02:27:36;;;;;;;9.45;1.20;;;;;;;;;;4984660;28;20034;-88
2021/05/21 02:30:34;;;;;;;11.35;1.83;;;;;;;;;;4979738;28;20038;-87
2021/05/21 02:33:14;;;;;;;6.18;2.10;;;;;;;;;;4966567;28;20027;-86
2021/05/21 02:36:07;;;;;;;17.83;2.03;;;;;;;;;;4946974;28;20179;-86
2021/05/21 02:39:00;;;;;;;7.00;1.90;;;;;;;;;;4943352;28;20039;-88
2021/05/21 02:41:53;;;;;;;10.20;3.10;;;;;;;;;;4949530;29;20036;-88
2021/05/21 02:48:22;;;;;;;7.50;1.42;;;;;;;;;;4921405;29;20096;-88
2021/05/21 02:50:59;;;;;;;8.88;1.75;;;;;;;;;;4937242;29;20097;-89
2021/05/21 02:54:14;;;;;;;7.28;1.83;;;;;;;;;;4921721;29;20061;-87
2021/05/21 02:57:26;;;;;;;6.40;2.03;;;;;;;;;;4901386;29;20046;-89
2021/05/21 02:59:58;;;;;;;20.48;2.50;;;;;;;;;;4922456;29;20057;-91
2021/05/21 03:02:26;;;;;;;11.80;2.13;;;;;;;;;;4935561;29;20061;-91
2021/05/21 03:04:54;;;;;;;12.93;1.98;;;;;;;;;;4935846;28;20067;-88
2021/05/21 03:07:21;;;;;;;11.15;1.30;;;;;;;;;;4963613;28;20069;-87
2021/05/21 03:09:52;;;;;;;11.00;1.73;;;;;;;;;;4959111;28;20015;-89
2021/05/21 03:12:18;;;;;;;9.73;2.33;;;;;;;;;;4968571;28;20298;-90
2021/05/21 03:14:44;;;;;;;8.95;1.60;;;;;;;;;;4941652;29;20038;-90
2021/05/21 03:17:38;;;;;;;10.73;1.63;;;;;;;;;;4963716;28;20035;-88
2021/05/21 03:20:15;;;;;;;7.72;1.23;;;;;;;;;;4976185;28;20051;-88
2021/05/21 03:22:51;;;;;;;7.05;1.58;;;;;;;;;;4978586;28;20058;-90
2021/05/21 03:25:18;;;;;;;11.50;1.92;;;;;;;;;;4976359;28;20057;-88
2021/05/21 03:27:46;;;;;;;17.90;1.80;;;;;;;;;;4994575;28;20102;-89
2021/05/21 03:30:26;;;;;;;6.75;1.80;;;;;;;;;;4965016;28;20031;-89
2021/05/21 03:33:02;;;;;;;4.45;1.30;;;;;;;;;;4999829;28;20028;-89
2021/05/21 03:35:51;;;;;;;15.68;1.50;;;;;;;;;;5010722;28;20038;-89
2021/05/21 03:38:27;;;;;;;5.13;1.35;;;;;;;;;;5024628;28;20046;-88
2021/05/21 03:41:00;;;;;;;6.00;1.05;;;;;;;;;;5015596;23;22071;-59
2021/05/21 03:43:26;;;;;;;14.80;2.28;;;;;;;;;;4986108;28;20036;-60
2021/05/21 03:45:51;;;;;;;8.68;2.08;;;;;;;;;;4969889;28;20033;-60
2021/05/21 03:48:17;;;;;;;7.65;1.52;;;;;;;;;;5002940;28;20037;-59
2021/05/21 03:50:46;;;;;;;7.28;1.40;;;;;;;;;;5005773;28;20037;-58
2021/05/21 03:53:11;;;;;;;9.13;1.23;;;;;;;;;;4955509;28;20041;-59
2021/05/21 03:55:39;;;;;;;5.55;0.77;;;;;;;;;;4987959;28;20056;-60
2021/05/21 03:58:05;;;;;;;8.27;1.60;;;;;;;;;;4986589;28;20160;-59
2021/05/21 04:00:30;;;;;;;9.25;2.00;;;;;;;;;;4987718;28;20021;-58
2021/05/21 04:02:58;;;;;;;6.90;1.13;;;;;;;;;;4986481;28;20060;-59
2021/05/21 04:05:24;;;;;;;12.23;1.67;;;;;;;;;;5003901;28;20550;-60
2021/05/21 04:07:52;;;;;;;11.85;1.38;;;;;;;;;;4987287;28;20025;-58
2021/05/21 04:10:18;;;;;;;9.40;1.55;;;;;;;;;;5003876;28;20148;-60
2021/05/21 04:12:43;;;;;;;9.38;2.38;;;;;;;;;;5000528;28;20052;-59
2021/05/21 04:15:09;;;;;;;12.23;1.85;;;;;;;;;;4984381;28;20033;-59
2021/05/21 04:17:35;;;;;;;19.77;2.50;;;;;;;;;;5003429;28;20486;-60
2021/05/21 04:20:03;;;;;;;13.40;1.42;;;;;;;;;;4984284;28;20033;-59
2021/05/21 04:22:31;;;;;;;14.35;1.63;;;;;;;;;;4983945;28;20116;-60
2021/05/21 04:25:00;;;;;;;9.60;1.70;;;;;;;;;;4999698;28;20021;-61
2021/05/21 04:27:25;;;;;;;4.65;1.50;;;;;;;;;;4983205;28;20025;-60
2021/05/21 04:29:51;;;;;;;12.50;1.85;;;;;;;;;;4983861;28;20590;-62
2021/05/21 04:32:20;;;;;;;10.73;2.35;;;;;;;;;;5002911;28;20029;-60
2021/05/21 04:34:49;;;;;;;11.98;2.13;;;;;;;;;;5003650;28;20025;-60
2021/05/21 04:37:18;;;;;;;19.75;2.47;;;;;;;;;;4983590;28;20713;-62
2021/05/21 04:39:46;;;;;;;16.23;2.20;;;;;;;;;;4986579;28;20125;-60
2021/05/21 04:42:12;;;;;;;15.55;2.35;;;;;;;;;;5002086;28;21103;-60
2021/05/21 04:44:37;;;;;;;12.63;2.65;;;;;;;;;;5001921;28;20033;-60
2021/05/21 04:47:03;;;;;;;15.23;2.00;;;;;;;;;;5000710;28;20049;-60
2021/05/21 04:49:32;;;;;;;19.15;2.10;;;;;;;;;;4996718;28;20065;-60
2021/05/21 04:52:02;;;;;;;16.70;1.42;;;;;;;;;;4984285;28;20048;-59
2021/05/21 04:54:28;;;;;;;13.73;2.10;;;;;;;;;;5004344;28;20041;-61
2021/05/21 04:56:54;;;;;;;16.60;2.70;;;;;;;;;;4999122;28;20038;-59
2021/05/21 04:59:21;;;;;;;15.60;1.83;;;;;;;;;;5003504;28;20522;-59
2021/05/21 05:01:47;;;;;;;13.15;2.30;;;;;;;;;;4982862;28;20065;-60
2021/05/21 05:04:15;;;;;;;12.95;1.98;;;;;;;;;;4985663;28;20028;-59
2021/05/21 05:06:42;;;;;;;22.00;2.03;;;;;;;;;;4977957;28;20029;-60
2021/05/21 05:09:09;;;;;;;10.13;1.85;;;;;;;;;;4984243;28;20677;-59
2021/05/21 05:11:34;;;;;;;21.30;2.25;;;;;;;;;;4982799;28;20040;-60
2021/05/21 05:14:03;;;;;;;11.23;2.13;;;;;;;;;;4997296;28;20038;-61
2021/05/21 05:16:29;;;;;;;23.80;2.95;;;;;;;;;;4982709;28;20072;-59
2021/05/21 05:18:55;;;;;;;17.58;2.47;;;;;;;;;;4979772;28;20526;-60
2021/05/21 05:21:21;;;;;;;9.32;1.90;;;;;;;;;;4969501;28;20045;-60
2021/05/21 05:23:47;;;;;;;10.65;1.35;;;;;;;;;;5003083;28;20033;-60
2021/05/21 05:26:12;;;;;;;6.25;2.10;;;;;;;;;;5002581;28;20036;-60
2021/05/21 05:28:41;;;;;;;16.85;2.35;;;;;;;;;;4982736;28;20049;-61
2021/05/21 05:31:07;;;;;;;13.80;2.22;;;;;;;;;;5001817;28;20076;-61
2021/05/21 05:33:33;;;;;;;13.77;1.63;;;;;;;;;;4969126;28;20466;-62
2021/05/21 05:36:00;;;;;;;19.80;2.40;;;;;;;;;;5006197;28;20044;-62
2021/05/21 05:38:25;;;;;;;15.68;1.98;;;;;;;;;;5001913;28;20030;-60
2021/05/21 05:40:52;;;;;;;6.50;1.40;;;;;;;;;;5006051;28;20323;-61
2021/05/21 05:43:17;;;;;;;17.27;2.17;;;;;;;;;;4985734;28;20480;-61
2021/05/21 05:45:43;;;;;;;10.95;1.80;;;;;;;;;;4971396;28;20644;-60
2021/05/21 05:48:09;;;;;;;13.35;2.00;;;;;;;;;;5000724;28;20022;-61
2021/05/21 05:50:34;;;;;;;13.60;2.80;;;;;;;;;;4986223;28;20571;-59
2021/05/21 05:53:00;;;;;;;6.90;1.85;;;;;;;;;;5003433;28;20121;-60
2021/05/21 05:55:25;;;;;;;16.70;2.78;;;;;;;;;;4981651;28;20132;-60
2021/05/21 05:57:51;;;;;;;14.20;2.17;;;;;;;;;;5006485;28;20708;-60
2021/05/21 06:00:17;;;;;;;16.10;2.50;;;;;;;;;;4985383;28;20048;-61
2021/05/21 06:02:42;;;;;;;19.20;2.47;;;;;;;;;;5005674;28;20025;-59
2021/05/21 06:05:08;;;;;;;13.63;2.10;;;;;;;;;;4989393;28;20033;-60
2021/05/21 06:07:33;;;;;;;16.05;2.70;;;;;;;;;;4985005;28;20947;-60
2021/05/21 06:10:03;;;;;;;15.80;2.00;;;;;;;;;;5005338;28;20034;-60
2021/05/21 06:12:29;;;;;;;20.58;2.95;;;;;;;;;;4985543;28;20076;-59
2021/05/21 06:14:54;;;;;;;13.35;2.03;;;;;;;;;;5004049;28;20121;-60
2021/05/21 06:17:20;;;;;;;11.73;2.38;;;;;;;;;;4982279;28;20176;-61
2021/05/21 06:19:48;;;;;;;13.25;2.08;;;;;;;;;;4987028;28;20580;-60
2021/05/21 06:22:17;;;;;;;16.63;2.17;;;;;;;;;;4986227;28;20025;-61
2021/05/21 06:24:44;;;;;;;16.25;1.90;;;;;;;;;;5005153;28;20128;-60
2021/05/21 06:27:16;;;;;;;15.18;2.25;;;;;;;;;;4987889;28;20040;-61
2021/05/21 06:29:44;;;;;;;13.38;2.13;;;;;;;;;;5004235;28;20056;-59
2021/05/21 06:32:10;;;;;;;14.48;2.85;;;;;;;;;;4999121;28;20033;-61
2021/05/21 06:34:38;;;;;;;17.92;2.30;;;;;;;;;;4986512;28;20094;-60
2021/05/21 06:37:07;;;;;;;13.93;2.22;;;;;;;;;;5002206;28;20071;-60
2021/05/21 06:39:35;;;;;;;14.48;2.33;;;;;;;;;;5005082;28;20546;-60
2021/05/21 06:42:02;;;;;;;9.23;1.48;;;;;;;;;;5003553;28;20056;-60
2021/05/21 06:44:28;;;;;;;12.23;1.50;;;;;;;;;;5003263;28;20033;-59
2021/05/21 06:46:57;;;;;;;10.30;1.52;;;;;;;;;;4987280;28;20025;-60
2021/05/21 06:49:23;;;;;;;14.63;1.90;;;;;;;;;;4984493;28;20040;-61
2021/05/21 06:51:49;;;;;;;12.80;1.83;;;;;;;;;;4948041;28;20038;-59
2021/05/21 06:54:14;;;;;;;21.08;2.33;;;;;;;;;;5000059;28;20400;-60
2021/05/21 06:56:40;;;;;;;15.70;1.65;;;;;;;;;;4985094;28;20044;-59
2021/05/21 06:59:05;;;;;;;17.80;2.72;;;;;;;;;;5000423;28;20029;-59
2021/05/21 07:01:31;;;;;;;7.22;1.75;;;;;;;;;;4985112;28;20160;-59
2021/05/21 07:03:58;;;;;;;22.02;2.30;;;;;;;;;;4984069;28;20061;-61
2021/05/21 07:06:23;;;;;;;17.98;2.08;;;;;;;;;;4983425;28;20091;-59
2021/05/21 07:08:51;;;;;;;8.88;2.35;;;;;;;;;;4986982;28;20194;-59
2021/05/21 07:11:18;;;;;;;12.75;2.38;;;;;;;;;;5005037;28;20060;-59
2021/05/21 07:13:43;;;;;;;13.52;2.00;;;;;;;;;;5004548;28;20120;-59
2021/05/21 07:16:09;;;;;;;12.30;2.10;;;;;;;;;;4983928;28;20026;-58
2021/05/21 07:18:37;;;;;;;11.63;2.08;;;;;;;;;;5002139;28;20026;-58
2021/05/21 07:21:03;;;;;;;12.43;1.88;;;;;;;;;;5004841;28;20036;-61
2021/05/21 07:23:30;;;;;;;17.00;2.13;;;;;;;;;;5002385;28;20036;-59
2021/05/21 07:25:55;;;;;;;7.40;1.33;;;;;;;;;;4999551;28;20029;-59
2021/05/21 07:28:21;;;;;;;12.75;2.40;;;;;;;;;;5000992;28;20475;-60
2021/05/21 07:30:49;;;;;;;5.85;1.30;;;;;;;;;;5000705;28;20041;-60
2021/05/21 07:33:17;;;;;;;7.97;2.22;;;;;;;;;;4987349;28;20475;-60
2021/05/21 07:35:42;;;;;;;7.25;1.45;;;;;;;;;;4985245;28;20499;-59
2021/05/21 07:38:08;;;;;;;4.68;1.70;;;;;;;;;;5004621;28;20025;-61
2021/05/21 07:40:34;;;;;;;9.02;1.67;;;;;;;;;;4999179;28;20172;-59
2021/05/21 07:43:00;;;;;;;9.77;1.60;;;;;;;;;;4979697;28;20046;-60
2021/05/21 07:45:26;;;;;;;13.32;2.30;;;;;;;;;;4979244;28;20153;-60
2021/05/21 07:47:51;;;;;;;12.88;2.25;;;;;;;;;;4981473;28;20030;-62
2021/05/21 07:50:19;;;;;;;16.10;2.45;;;;;;;;;;4980859;28;20150;-60
2021/05/21 07:52:45;;;;;;;11.07;2.15;;;;;;;;;;4980819;28;20029;-59
2021/05/21 07:55:14;;;;;;;15.68;2.33;;;;;;;;;;4976286;28;20392;-59
2021/05/21 07:57:40;;;;;;;13.35;2.20;;;;;;;;;;4981307;28;20048;-60
2021/05/21 08:00:07;;;;;;;14.55;1.83;;;;;;;;;;4982507;28;20026;-60
2021/05/21 08:02:35;;;;;;;10.15;1.65;;;;;;;;;;4980377;28;20053;-59
2021/05/21 08:05:01;;;;;;;12.18;1.70;;;;;;;;;;4984662;28;22217;-59
2021/05/21 08:07:29;;;;;;;14.80;1.90;;;;;;;;;;4961031;28;20056;-59
2021/05/21 08:09:55;;;;;;;13.95;2.22;;;;;;;;;;4945566;28;20034;-59
2021/05/21 08:12:21;;;;;;;11.73;1.67;;;;;;;;;;4992584;28;20268;-60
2021/05/21 08:14:49;;;;;;;14.05;1.77;;;;;;;;;;4959029;28;20036;-58
2021/05/21 08:17:16;;;;;;;9.40;1.40;;;;;;;;;;4971813;28;20068;-59
2021/05/21 08:19:41;;;;;;;11.68;1.92;;;;;;;;;;4974277;28;20432;-58
2021/05/21 08:22:07;;;;;;;17.60;2.40;;;;;;;;;;4973387;28;20034;-58
2021/05/21 08:24:35;;;;;;;20.38;2.25;;;;;;;;;;4952940;28;20033;-59
2021/05/21 08:27:00;;;;;;;16.75;2.00;;;;;;;;;;4988319;28;20037;-59
2021/05/21 08:29:28;;;;;;;11.57;1.75;;;;;;;;;;4971899;28;21248;-58
2021/05/21 08:31:57;;;;;;;19.60;2.10;;;;;;;;;;4972469;28;20035;-59
2021/05/21 08:34:25;;;;;;;11.05;1.48;;;;;;;;;;4971208;28;20891;-58
2021/05/21 08:36:51;;;;;;;13.57;1.75;;;;;;;;;;4976138;28;20099;-62
2021/05/21 08:39:21;;;;;;;11.35;2.28;;;;;;;;;;4993772;28;20057;-59
2021/05/21 08:41:49;;;;;;;15.52;2.22;;;;;;;;;;4992434;28;20041;-60
2021/05/21 08:44:16;;;;;;;9.85;2.40;;;;;;;;;;4976863;28;22229;-59
2021/05/21 08:46:44;;;;;;;11.13;1.60;;;;;;;;;;4995886;28;20115;-60
2021/05/21 08:49:13;;;;;;;8.93;1.50;;;;;;;;;;4975852;28;20056;-59
2021/05/21 08:51:39;;;;;;;12.25;2.67;;;;;;;;;;4992351;28;20029;-60
2021/05/21 08:54:07;;;;;;;16.63;3.13;;;;;;;;;;4996302;28;20045;-60
2021/05/21 08:56:33;;;;;;;11.63;1.92;;;;;;;;;;4976373;28;20041;-60
2021/05/21 08:58:59;;;;;;;10.05;1.33;;;;;;;;;;4975928;28;20120;-62
2021/05/21 09:01:28;;;;;;;12.80;2.53;;;;;;;;;;4971528;28;20029;-61
2021/05/21 09:03:59;;;;;;;12.40;2.83;;;;;;;;;;4954695;28;20024;-60
2021/05/21 09:06:25;;;;;;;14.32;1.85;;;;;;;;;;4962794;28;20520;-59
2021/05/21 09:08:54;;;;;;;9.70;2.08;;;;;;;;;;4992333;28;20029;-60
2021/05/21 09:11:21;;;;;;;16.23;2.25;;;;;;;;;;4997676;28;20670;-59
2021/05/21 09:13:51;;;;;;;9.43;2.33;;;;;;;;;;4979115;28;20037;-61
2021/05/21 09:16:27;;;;;;;14.82;1.58;;;;;;;;;;4998723;28;20040;-65
2021/05/21 09:19:09;;;;;;;19.55;2.58;;;;;;;;;;5000102;28;20037;-60
2021/05/21 09:21:55;;;;;;;11.50;2.85;;;;;;;;;;4995546;28;20030;-60
2021/05/21 09:24:33;;;;;;;10.57;1.95;;;;;;;;;;4987853;28;20025;-60
2021/05/21 09:26:59;;;;;;;13.80;1.80;;;;;;;;;;5006939;28;20033;-62
2021/05/21 09:29:49;;;;;;;8.30;1.67;;;;;;;;;;5008199;28;20427;-60
2021/05/21 09:32:15;;;;;;;8.55;1.67;;;;;;;;;;5004722;28;20033;-61
2021/05/21 09:34:41;;;;;;;18.17;2.20;;;;;;;;;;4988723;28;20833;-61
2021/05/21 09:37:21;;;;;;;15.10;1.90;;;;;;;;;;5006156;28;20087;-62
2021/05/21 09:40:04;;;;;;;10.52;1.67;;;;;;;;;;5003685;28;20164;-61
2021/05/21 09:42:41;;;;;;;10.52;2.00;;;;;;;;;;5001282;28;20600;-59
2021/05/21 09:45:28;;;;;;;7.60;1.60;;;;;;;;;;5004215;28;20153;-61
2021/05/21 09:48:01;;;;;;;19.58;2.72;;;;;;;;;;5005603;28;20029;-61
2021/05/21 09:50:31;;;;;;;6.28;1.60;;;;;;;;;;4984281;28;20519;-60
2021/05/21 09:53:05;;;;;;;8.90;1.73;;;;;;;;;;4987326;28;20026;-60
2021/05/21 09:55:52;;;;;;;8.88;1.60;;;;;;;;;;5005678;28;20025;-61
2021/05/21 09:58:32;;;;;;;11.38;2.05;;;;;;;;;;5004122;28;20022;-60
2021/05/21 10:01:06;;;;;;;10.98;2.22;;;;;;;;;;4985500;28;20025;-61
2021/05/21 10:03:34;;;;;;;9.20;2.10;;;;;;;;;;5002371;28;20040;-62
2021/05/21 10:06:04;;;;;;;9.45;2.08;;;;;;;;;;5000688;28;20025;-60
2021/05/21 10:08:32;;;;;;;8.85;2.10;;;;;;;;;;5001613;28;20050;-59
2021/05/21 10:10:59;;;;;;;9.30;1.98;;;;;;;;;;4985365;28;20037;-60
2021/05/21 10:13:27;;;;;;;5.85;1.38;;;;;;;;;;4985529;28;20033;-62
2021/05/21 10:15:56;;;;;;;10.65;1.80;;;;;;;;;;5004216;28;20041;-61
2021/05/21 10:18:22;;;;;;;7.15;1.55;;;;;;;;;;5003428;28;20067;-60
2021/05/21 10:20:51;;;;;;;3.80;1.08;;;;;;;;;;5003223;28;20037;-59
2021/05/21 10:23:19;;;;;;;11.25;1.60;;;;;;;;;;4968933;28;20029;-61
2021/05/21 10:25:45;;;;;;;11.00;1.88;;;;;;;;;;4987953;28;20130;-61
2021/05/21 10:28:10;;;;;;;9.50;1.75;;;;;;;;;;4984480;28;20103;-61
2021/05/21 10:30:36;;;;;;;12.13;2.28;;;;;;;;;;4999729;28;20034;-61
2021/05/21 10:33:12;;;;;;;10.68;1.45;;;;;;;;;;5004267;28;20037;-61
2021/05/21 10:35:39;;;;;;;7.40;1.80;;;;;;;;;;5005512;28;20079;-60
2021/05/21 10:38:18;;;;;;;7.32;1.70;;;;;;;;;;5003029;28;20040;-60
2021/05/21 10:40:44;;;;;;;10.57;1.73;;;;;;;;;;4985980;28;20700;-60
2021/05/21 10:43:17;;;;;;;9.43;1.95;;;;;;;;;;4983226;28;20112;-60
2021/05/21 10:45:53;;;;;;;10.60;1.63;;;;;;;;;;5003765;28;20029;-62
2021/05/21 10:48:27;;;;;;;8.85;1.40;;;;;;;;;;5002300;28;20560;-62
2021/05/21 10:51:11;;;;;;;6.03;1.67;;;;;;;;;;5000607;28;20033;-62
2021/05/21 10:53:40;;;;;;;8.38;1.55;;;;;;;;;;4983058;28;20682;-61
2021/05/21 10:56:06;;;;;;;8.18;1.35;;;;;;;;;;5003908;28;20099;-61
2021/05/21 10:58:38;;;;;;;10.85;1.83;;;;;;;;;;4997813;28;20029;-59
2021/05/21 11:01:04;;;;;;;6.00;1.48;;;;;;;;;;4968287;28;20396;-60
2021/05/21 11:03:30;;;;;;;4.38;1.50;;;;;;;;;;5002235;28;20539;-60
2021/05/21 11:06:15;;;;;;;4.78;1.10;;;;;;;;;;5002342;28;20033;-61
2021/05/21 11:08:47;;;;;;;4.72;1.25;;;;;;;;;;5000596;28;20637;-61
2021/05/21 11:11:14;;;;;;;4.95;1.25;;;;;;;;;;4984808;28;20037;-60
2021/05/21 11:13:41;;;;;;;7.53;1.40;;;;;;;;;;4999411;28;20121;-60
2021/05/21 11:16:13;;;;;;;10.23;1.33;;;;;;;;;;5001954;28;20033;-58
2021/05/21 11:18:48;;;;;;;11.00;1.70;;;;;;;;;;4985765;28;20060;-62
2021/05/21 11:21:17;;;;;;;7.55;1.60;;;;;;;;;;5002353;28;20120;-62
2021/05/21 11:23:46;;;;;;;6.10;1.55;;;;;;;;;;4983836;28;20049;-60
2021/05/21 11:26:17;;;;;;;5.85;1.48;;;;;;;;;;4987760;28;20317;-62
2021/05/21 11:28:58;;;;;;;9.00;1.60;;;;;;;;;;4984315;28;20045;-59
2021/05/21 11:31:30;;;;;;;12.02;2.08;;;;;;;;;;4982994;28;20033;-62
2021/05/21 11:33:58;;;;;;;14.80;2.47;;;;;;;;;;4969407;28;20148;-60
2021/05/21 11:36:24;;;;;;;10.90;2.08;;;;;;;;;;4999711;28;20079;-58
2021/05/21 11:38:50;;;;;;;12.77;1.90;;;;;;;;;;5003885;28;20087;-63
2021/05/21 11:41:16;;;;;;;15.10;2.05;;;;;;;;;;4982449;28;20041;-60
2021/05/21 11:43:43;;;;;;;10.27;1.55;;;;;;;;;;4984144;28;20086;-60
2021/05/21 11:46:17;;;;;;;5.63;1.15;;;;;;;;;;4967998;28;20691;-61
2021/05/21 11:48:43;;;;;;;7.72;1.27;;;;;;;;;;5003410;28;20511;-58
2021/05/21 11:51:14;;;;;;;8.68;1.63;;;;;;;;;;5003543;28;20028;-56
2021/05/21 11:53:46;;;;;;;7.20;1.17;;;;;;;;;;5004502;28;20040;-61
2021/05/21 11:56:25;;;;;;;3.92;1.20;;;;;;;;;;4980228;28;20034;-61
2021/05/21 11:58:51;;;;;;;11.05;1.30;;;;;;;;;;5003050;28;20079;-60
2021/05/21 12:01:16;;;;;;;7.57;1.67;;;;;;;;;;4999622;28;20053;-59
2021/05/21 12:03:42;;;;;;;8.68;1.30;;;;;;;;;;4982214;28;21647;-62
2021/05/21 12:06:10;;;;;;;5.72;0.80;;;;;;;;;;4986280;28;20026;-60
2021/05/21 12:08:36;;;;;;;10.45;2.08;;;;;;;;;;4985207;28;20048;-60
2021/05/21 12:11:02;;;;;;;10.82;1.80;;;;;;;;;;4998943;28;20057;-60
2021/05/21 12:13:29;;;;;;;7.20;0.90;;;;;;;;;;4984203;28;20037;-61
2021/05/21 12:16:14;;;;;;;7.70;1.50;;;;;;;;;;4999702;28;20041;-60
2021/05/21 12:18:43;;;;;;;9.27;1.30;;;;;;;;;;4969613;28;20126;-61
2021/05/21 12:21:09;;;;;;;7.95;1.17;;;;;;;;;;4979527;28;20033;-62
2021/05/21 12:23:39;;;;;;;6.05;1.15;;;;;;;;;;5001781;28;20029;-62
2021/05/21 12:26:07;;;;;;;7.72;1.33;;;;;;;;;;4998975;28;20021;-61
2021/05/21 12:28:33;;;;;;;5.35;1.45;;;;;;;;;;4968622;28;20614;-60
2021/05/21 12:31:02;;;;;;;12.02;1.83;;;;;;;;;;4984626;28;20179;-60
2021/05/21 12:33:30;;;;;;;5.07;1.90;;;;;;;;;;4983801;28;20705;-58
2021/05/21 12:36:01;;;;;;;7.10;1.05;;;;;;;;;;4982820;28;20661;-60
2021/05/21 12:38:28;;;;;;;2.17;0.93;;;;;;;;;;5004233;28;20456;-59
2021/05/21 12:40:58;;;;;;;6.32;1.38;;;;;;;;;;5001764;28;20099;-61
2021/05/21 12:43:27;;;;;;;3.75;1.30;;;;;;;;;;5003304;28;20038;-61
2021/05/21 12:46:03;;;;;;;10.55;2.17;;;;;;;;;;4996574;28;20037;-61
2021/05/21 12:48:37;;;;;;;8.23;1.30;;;;;;;;;;4962715;28;20029;-62
2021/05/21 12:51:09;;;;;;;5.50;1.55;;;;;;;;;;4999486;28;20103;-62
2021/05/21 12:53:35;;;;;;;14.30;1.48;;;;;;;;;;4983353;28;20029;-62
2021/05/21 12:56:03;;;;;;;2.22;1.10;;;;;;;;;;5000618;28;20037;-62
2021/05/21 12:58:41;;;;;;;10.65;1.73;;;;;;;;;;5001396;28;20034;-59
2021/05/21 13:01:06;;;;;;;3.40;1.10;;;;;;;;;;4963842;28;20045;-61
2021/05/21 13:03:51;;;;;;;9.02;1.45;;;;;;;;;;4979940;28;20038;-61
2021/05/21 13:06:33;;;;;;;6.55;1.17;;;;;;;;;;4967081;28;20034;-62
2021/05/21 13:09:03;;;;;;;6.47;1.52;;;;;;;;;;5003227;28;20087;-61
2021/05/21 13:11:32;;;;;;;5.72;1.60;;;;;;;;;;4999032;28;20155;-60
2021/05/21 13:14:01;;;;;;;11.02;1.33;;;;;;;;;;5003041;28;20033;-61
2021/05/21 13:16:47;;;;;;;11.15;1.65;;;;;;;;;;4984405;28;20036;-61
2021/05/21 13:19:23;;;;;;;7.97;1.20;;;;;;;;;;5002953;28;20122;-60
2021/05/21 13:21:52;;;;;;;12.02;1.63;;;;;;;;;;5001527;28;20033;-59
2021/05/21 13:24:22;;;;;;;6.32;1.25;;;;;;;;;;4999291;28;20071;-60
2021/05/21 13:26:54;;;;;;;8.18;1.88;;;;;;;;;;5002119;28;20064;-60
2021/05/21 13:29:24;;;;;;;7.43;1.55;;;;;;;;;;5003215;28;20042;-60
2021/05/21 13:31:50;;;;;;;6.97;1.35;;;;;;;;;;4998723;28;20396;-60
2021/05/21 13:34:20;;;;;;;7.53;1.25;;;;;;;;;;4982979;28;20076;-61
2021/05/21 13:36:48;;;;;;;7.95;1.55;;;;;;;;;;4988463;28;20033;-60
2021/05/21 13:39:14;;;;;;;6.45;0.95;;;;;;;;;;4984355;28;21203;-61
2021/05/21 13:41:39;;;;;;;5.80;1.17;;;;;;;;;;4982686;28;20087;-60
2021/05/21 13:44:05;;;;;;;12.60;1.67;;;;;;;;;;4998374;28;20038;-59
2021/05/21 13:46:32;;;;;;;7.45;1.40;;;;;;;;;;4981044;28;20026;-60
2021/05/21 13:49:01;;;;;;;6.20;1.80;;;;;;;;;;4984238;28;20037;-60
2021/05/21 13:51:26;;;;;;;7.97;1.60;;;;;;;;;;5001996;28;20163;-61
2021/05/21 13:53:52;;;;;;;8.40;1.40;;;;;;;;;;5000693;28;20032;-59
2021/05/21 13:56:18;;;;;;;11.77;1.88;;;;;;;;;;5003046;28;20029;-61
2021/05/21 13:58:44;;;;;;;6.07;1.40;;;;;;;;;;4985437;28;22066;-61
2021/05/21 14:01:10;;;;;;;10.35;1.45;;;;;;;;;;5000511;28;20026;-60
2021/05/21 14:03:36;;;;;;;7.13;1.65;;;;;;;;;;4986865;28;20187;-59
2021/05/21 14:06:02;;;;;;;5.10;1.73;;;;;;;;;;4984900;28;20040;-61
2021/05/21 14:08:31;;;;;;;10.93;1.45;;;;;;;;;;5004023;28;20083;-59
2021/05/21 14:10:59;;;;;;;7.82;1.30;;;;;;;;;;5003681;28;20458;-59
2021/05/21 14:13:25;;;;;;;5.32;1.15;;;;;;;;;;4983938;28;20036;-60
2021/05/21 14:15:53;;;;;;;9.43;1.45;;;;;;;;;;5005184;28;20676;-59
2021/05/21 14:18:20;;;;;;;10.68;1.48;;;;;;;;;;4986090;28;20819;-58
2021/05/21 14:20:46;;;;;;;6.25;2.08;;;;;;;;;;4969203;28;20037;-59
2021/05/21 14:23:15;;;;;;;8.05;1.20;;;;;;;;;;4984270;28;20029;-59
2021/05/21 14:25:40;;;;;;;2.63;0.88;;;;;;;;;;4987496;28;20597;-59
2021/05/21 14:28:08;;;;;;;8.75;1.88;;;;;;;;;;5004825;28;20029;-60
2021/05/21 14:30:34;;;;;;;8.38;1.35;;;;;;;;;;5001119;28;20087;-58
2021/05/21 14:33:01;;;;;;;14.18;1.63;;;;;;;;;;4967793;28;20059;-60
2021/05/21 14:35:29;;;;;;;11.25;1.50;;;;;;;;;;4987347;28;20037;-59
2021/05/21 14:37:55;;;;;;;6.95;1.58;;;;;;;;;;5003757;28;20543;-60
2021/05/21 14:40:21;;;;;;;9.20;0.82;;;;;;;;;;4984242;28;20073;-61
2021/05/21 14:42:47;;;;;;;4.07;1.45;;;;;;;;;;5004621;28;20053;-61
2021/05/21 14:45:18;;;;;;;3.35;1.05;;;;;;;;;;5002268;28;20042;-60
2021/05/21 14:47:44;;;;;;;5.40;1.60;;;;;;;;;;4983735;28;20139;-59
2021/05/21 14:50:11;;;;;;;4.20;1.08;;;;;;;;;;4980603;28;20040;-59
2021/05/21 14:52:37;;;;;;;6.45;1.20;;;;;;;;;;4983802;28;20117;-59
2021/05/21 14:55:07;;;;;;;4.93;1.10;;;;;;;;;;4982657;28;20037;-59
2021/05/21 14:57:34;;;;;;;7.45;1.45;;;;;;;;;;5003896;28;20045;-61
2021/05/21 15:00:01;;;;;;;6.18;1.52;;;;;;;;;;5002531;28;20175;-59
2021/05/21 15:02:34;;;;;;;8.05;1.83;;;;;;;;;;5004456;28;20055;-60